createdAt,value
2018-03-17T00:02:32.332Z,4.0
2018-03-17T00:19:17.609Z,4.0
2018-03-17T00:36:04.365Z,4.0
2018-03-17T00:52:50.131Z,4.0
2018-03-17T01:09:35.965Z,4.0
2018-03-17T01:26:22.657Z,4.0
2018-03-17T01:43:07.797Z,3.9
2018-03-17T01:59:53.219Z,3.9
2018-03-17T02:16:38.459Z,3.9
2018-03-17T02:33:24.318Z,3.9
2018-03-17T02:50:10.359Z,3.9
2018-03-17T03:06:55.910Z,3.9
2018-03-17T03:23:41.013Z,3.9
2018-03-17T03:40:27.182Z,3.9
2018-03-17T03:57:11.910Z,3.9
2018-03-17T04:13:57.086Z,3.9
2018-03-17T04:30:42.135Z,3.9
2018-03-17T04:47:27.623Z,3.8
2018-03-17T05:04:12.328Z,3.8
2018-03-17T05:20:57.575Z,3.8
2018-03-17T05:37:42.467Z,3.8
2018-03-17T05:54:27.925Z,3.8
2018-03-17T06:11:12.502Z,3.8
2018-03-17T06:27:56.890Z,3.8
2018-03-17T06:44:41.725Z,3.8
2018-03-17T07:01:27.006Z,3.8
2018-03-17T07:18:12.196Z,3.8
2018-03-17T07:34:57.403Z,3.9
2018-03-17T07:51:42.728Z,3.9
2018-03-17T08:08:28.132Z,4.0
2018-03-17T08:25:14.011Z,4.1
2018-03-17T08:41:58.719Z,4.1
2018-03-17T08:58:43.963Z,4.2
2018-03-17T09:15:29.895Z,4.3
2018-03-17T09:32:15.879Z,4.4
2018-03-17T09:49:01.803Z,4.5
2018-03-17T10:05:47.609Z,4.5
2018-03-17T10:22:33.402Z,4.5
2018-03-17T10:39:19.334Z,4.5
2018-03-17T10:56:05.286Z,4.5
2018-03-17T11:12:51.326Z,4.5
2018-03-17T11:29:37.428Z,4.5
2018-03-17T11:46:23.664Z,4.5
2018-03-17T12:03:09.995Z,4.5
2018-03-17T12:19:56.410Z,4.5
2018-03-17T12:36:42.818Z,4.5
2018-03-17T12:53:29.313Z,4.6
2018-03-17T13:10:15.859Z,4.5
2018-03-17T13:27:02.422Z,4.5
2018-03-17T13:43:49.118Z,4.5
2018-03-17T14:00:35.567Z,4.5
2018-03-17T14:17:22.764Z,4.5
2018-03-17T14:34:09.084Z,4.5
2018-03-17T14:50:56.081Z,4.5
2018-03-17T15:07:42.421Z,4.5
2018-03-17T15:24:29.690Z,4.5
2018-03-17T15:41:16.154Z,4.5
2018-03-17T15:58:02.102Z,4.4
2018-03-17T16:14:48.822Z,4.4
2018-03-17T16:31:35.175Z,4.4
2018-03-17T16:48:22.567Z,4.4
2018-03-17T17:05:09.348Z,4.4
2018-03-17T17:21:55.724Z,4.3
2018-03-17T17:38:41.676Z,4.3
2018-03-17T17:55:28.351Z,4.3
2018-03-17T18:12:14.895Z,4.3
2018-03-17T18:29:01.593Z,4.3
2018-03-17T18:45:47.959Z,4.2
2018-03-17T19:02:33.669Z,4.2
2018-03-17T19:19:19.523Z,4.2
2018-03-17T19:36:05.155Z,4.2
2018-03-17T19:52:50.931Z,4.2
2018-03-17T20:09:36.724Z,4.2
2018-03-17T20:26:22.652Z,4.2
2018-03-17T20:43:09.060Z,4.2
2018-03-17T20:59:54.681Z,4.2
2018-03-17T21:16:40.540Z,4.2
2018-03-17T21:33:26.630Z,4.1
2018-03-17T21:50:12.523Z,4.1
2018-03-17T22:06:59.285Z,4.1
2018-03-17T22:23:45.741Z,4.1
2018-03-17T22:40:32.019Z,4.1
2018-03-17T22:57:18.298Z,4.1
2018-03-17T23:14:03.866Z,4.1
2018-03-17T23:30:50.421Z,4.1
2018-03-17T23:47:36.592Z,4.1
